CheckWX is a tool to help pilots better visualize weather data.  It is not intended as a substitute for an official pre-flight weather briefing.

20:37:14 UTC

GMMN METAR
Mohammed V International Airport
Casablanca, Morocco
Current

37 mins ago

GMMN 162000Z 35008KT 310V050 9999 BKN016 21/19 Q1017 NOSIG
Observed
Jul-16 @ 20:00 UTC
Wind
  • 350° at 8 KTS
Visibility
10,000+ meters
Flight Rules
MVFR
Cloud Levels
  • Broken at 1,600' AGL
Temperature
21°C / 70°F
Dewpoint
19°C / 66°F
Humidity
88%
Altimeter
30.03" Hg
Pressure
1016.92 hPa
Previous

1 hour ago

GMMN 161930Z 02009KT 350V060 9999 BKN016 21/19 Q1017 NOSIG
Observed
Jul-16 @ 19:30 UTC
Wind
  • 020° at 9 KTS
Visibility
10,000+ meters
Flight Rules
MVFR
Cloud Levels
  • Broken at 1,600' AGL
Temperature
21°C / 70°F
Dewpoint
19°C / 66°F
Humidity
88%
Altimeter
30.03" Hg
Pressure
1016.92 hPa
Previous

2 hours ago

GMMN 161900Z 36011KT 330V040 9999 BKN016 21/19 Q1016 NOSIG
Observed
Jul-16 @ 19:00 UTC
Wind
  • 360° at 11 KTS
Visibility
10,000+ meters
Flight Rules
MVFR
Cloud Levels
  • Broken at 1,600' AGL
Temperature
21°C / 70°F
Dewpoint
19°C / 66°F
Humidity
88%
Altimeter
30" Hg
Pressure
1015.92 hPa